Time;durP1;ratioP1;P1;durP2;ratioP2;P2;SDS_P1;SDS_P2;PMS_P1;PMS_P2;Temp;Humidity;BMP_temperature;BMP_pressure;BME280_temperature;BME280_humidity;BME280_pressure;Samples;Min_cycle;Max_cycle;Signal;HPM_P1;HPM_P2
2020/12/22 00:00:27;;;;;;;28.73;3.10;;;15.40;95.70;;;;;;5015156;28;20469;-71
2020/12/22 00:02:52;;;;;;;28.73;3.55;;;15.40;95.60;;;;;;5015329;28;20030;-71
2020/12/22 00:05:18;;;;;;;24.52;3.08;;;15.40;95.70;;;;;;5014941;28;20042;-71
2020/12/22 00:07:44;;;;;;;30.33;3.38;;;15.30;95.60;;;;;;5014489;28;20044;-70
2020/12/22 00:10:11;;;;;;;28.85;3.30;;;15.20;95.60;;;;;;5014975;28;20050;-72
2020/12/22 00:12:38;;;;;;;26.90;3.25;;;15.30;95.70;;;;;;5014652;28;20049;-72
2020/12/22 00:15:09;;;;;;;29.20;3.58;;;15.30;95.60;;;;;;5014673;28;20140;-70
2020/12/22 00:17:35;;;;;;;25.83;3.38;;;15.30;95.60;;;;;;5015138;28;20044;-69
2020/12/22 00:20:01;;;;;;;27.33;2.83;;;15.40;95.70;;;;;;5014843;28;20167;-70
2020/12/22 00:22:28;;;;;;;32.33;3.40;;;15.30;95.70;;;;;;5014632;28;20037;-69
2020/12/22 00:24:54;;;;;;;21.67;2.80;;;15.40;95.70;;;;;;5013651;28;20034;-72
2020/12/22 00:27:20;;;;;;;28.27;3.08;;;15.50;95.80;;;;;;5014671;28;20045;-70
2020/12/22 00:29:45;;;;;;;26.92;2.72;;;15.50;95.50;;;;;;5014881;28;20064;-69
2020/12/22 00:32:11;;;;;;;32.30;3.17;;;15.30;95.50;;;;;;5014672;28;20121;-71
2020/12/22 00:34:37;;;;;;;26.75;3.30;;;15.30;95.60;;;;;;5014663;28;20049;-69
2020/12/22 00:37:03;;;;;;;28.40;3.10;;;15.40;95.60;;;;;;5014251;28;20038;-69
2020/12/22 00:39:29;;;;;;;22.17;2.83;;;15.30;95.70;;;;;;5014356;28;20100;-72
2020/12/22 00:41:57;;;;;;;27.45;3.00;;;15.30;95.60;;;;;;5014190;28;20397;-72
2020/12/22 00:44:24;;;;;;;28.02;2.97;;;15.30;95.60;;;;;;5014335;28;20049;-71
2020/12/22 00:46:52;;;;;;;29.38;3.10;;;15.20;95.60;;;;;;5014674;28;20030;-71
2020/12/22 00:49:18;;;;;;;24.88;2.63;;;15.10;95.60;;;;;;5014026;28;20053;-71
2020/12/22 00:51:44;;;;;;;21.63;2.42;;;15.20;95.60;;;;;;5014486;28;20042;-71
2020/12/22 00:54:10;;;;;;;25.15;2.67;;;15.20;95.60;;;;;;5013727;28;20033;-71
2020/12/22 00:56:36;;;;;;;22.45;2.90;;;15.20;95.60;;;;;;5014407;28;20065;-71
2020/12/22 00:59:02;;;;;;;24.63;2.83;;;15.30;95.60;;;;;;5013957;28;20047;-71
2020/12/22 01:01:30;;;;;;;26.55;2.58;;;15.20;95.60;;;;;;5014219;28;20454;-71
2020/12/22 01:03:59;;;;;;;33.10;3.00;;;15.20;95.60;;;;;;5013991;28;20042;-71
2020/12/22 01:06:26;;;;;;;24.20;3.20;;;15.10;95.60;;;;;;5014136;28;20034;-71
2020/12/22 01:08:52;;;;;;;24.23;2.90;;;15.20;95.70;;;;;;5013996;28;20054;-71
2020/12/22 01:11:22;;;;;;;29.38;3.15;;;15.10;95.70;;;;;;5013798;28;20041;-71
2020/12/22 01:13:49;;;;;;;32.33;3.70;;;15.10;95.70;;;;;;5014110;28;20145;-71
2020/12/22 01:16:15;;;;;;;25.65;2.95;;;15.10;95.70;;;;;;5014305;28;20037;-71
2020/12/22 01:18:40;;;;;;;22.92;2.42;;;15.10;95.70;;;;;;5014232;28;20041;-71
2020/12/22 01:21:06;;;;;;;30.27;2.88;;;15.20;95.70;;;;;;5014522;28;20034;-71
2020/12/22 01:23:32;;;;;;;30.85;3.17;;;15.20;95.70;;;;;;5014217;28;20053;-71
2020/12/22 01:25:58;;;;;;;25.80;3.22;;;15.20;95.70;;;;;;5013947;28;20393;-71
2020/12/22 01:28:23;;;;;;;30.38;3.30;;;15.10;95.60;;;;;;5013950;28;20037;-71
2020/12/22 01:30:49;;;;;;;27.23;2.70;;;15.20;95.60;;;;;;5014156;28;20046;-71
2020/12/22 01:33:15;;;;;;;26.92;3.10;;;15.20;95.60;;;;;;5014231;28;20076;-71
2020/12/22 01:35:41;;;;;;;22.77;3.08;;;15.10;95.60;;;;;;5013966;28;20117;-71
2020/12/22 01:38:06;;;;;;;28.83;3.00;;;15.20;95.60;;;;;;5017860;28;20057;-71
2020/12/22 01:40:32;;;;;;;21.90;2.83;;;15.10;95.60;;;;;;5018079;28;20042;-71
2020/12/22 01:42:58;;;;;;;27.52;2.90;;;15.10;95.70;;;;;;5017963;28;20397;-71
2020/12/22 01:45:24;;;;;;;26.25;2.47;;;15.00;95.60;;;;;;5018104;28;20037;-71
2020/12/22 01:47:50;;;;;;;19.73;1.83;;;15.10;95.70;;;;;;5017461;28;20137;-71
2020/12/22 01:50:18;;;;;;;24.17;2.70;;;15.20;95.70;;;;;;5017788;28;20489;-71
2020/12/22 01:52:44;;;;;;;25.45;2.47;;;15.00;95.70;;;;;;5017957;28;20077;-71
2020/12/22 01:55:10;;;;;;;20.92;1.90;;;15.00;95.70;;;;;;5016744;28;20042;-71
2020/12/22 01:57:37;;;;;;;22.08;2.30;;;15.10;95.70;;;;;;5017892;28;20065;-71
2020/12/22 02:00:06;;;;;;;22.10;2.25;;;15.10;95.80;;;;;;5017856;28;20052;-71
2020/12/22 02:02:33;;;;;;;20.80;2.35;;;15.00;95.70;;;;;;5017833;28;20101;-71
2020/12/22 02:05:01;;;;;;;20.90;1.85;;;15.10;95.80;;;;;;5017335;28;20429;-71
2020/12/22 02:07:27;;;;;;;21.10;2.20;;;15.00;95.80;;;;;;5017443;28;20046;-71
2020/12/22 02:09:53;;;;;;;16.75;1.48;;;15.10;95.80;;;;;;5017654;28;20038;-71
2020/12/22 02:12:19;;;;;;;18.35;1.90;;;15.00;95.80;;;;;;5017417;28;20497;-71
2020/12/22 02:14:45;;;;;;;15.85;1.38;;;15.00;95.80;;;;;;5016896;28;20085;-71
2020/12/22 02:17:13;;;;;;;17.38;1.60;;;15.10;95.80;;;;;;5017244;28;20046;-70
2020/12/22 02:19:38;;;;;;;22.00;1.98;;;15.10;95.80;;;;;;5017185;28;20046;-71
2020/12/22 02:22:05;;;;;;;16.65;1.70;;;15.10;95.90;;;;;;5017316;28;20099;-71
2020/12/22 02:24:37;;;;;;;17.98;1.90;;;15.00;96.00;;;;;;5017136;28;20084;-70
2020/12/22 02:27:05;;;;;;;20.90;1.85;;;15.00;96.00;;;;;;5017216;28;20045;-71
2020/12/22 02:29:31;;;;;;;28.15;2.53;;;15.10;96.00;;;;;;5017046;28;20161;-71
2020/12/22 02:31:58;;;;;;;24.17;1.95;;;15.00;96.00;;;;;;5017296;28;20054;-71
2020/12/22 02:34:25;;;;;;;30.92;2.83;;;15.10;96.00;;;;;;5016824;28;20042;-71
2020/12/22 02:36:51;;;;;;;25.08;2.25;;;15.10;96.00;;;;;;5017095;28;20042;-71
2020/12/22 02:39:16;;;;;;;19.30;2.13;;;15.00;96.00;;;;;;5017086;28;20046;-70
2020/12/22 02:41:42;;;;;;;23.42;2.58;;;15.20;96.00;;;;;;5016962;28;20489;-71
2020/12/22 02:44:08;;;;;;;29.25;2.50;;;15.10;96.00;;;;;;5016856;28;20033;-71
2020/12/22 02:46:34;;;;;;;22.65;2.92;;;15.10;96.10;;;;;;5016995;28;20038;-71
2020/12/22 02:49:01;;;;;;;19.30;2.13;;;15.20;96.20;;;;;;5015756;28;20045;-71
2020/12/22 02:51:32;;;;;;;23.05;2.33;;;15.10;96.10;;;;;;5016962;28;20045;-71
2020/12/22 02:53:58;;;;;;;24.65;2.20;;;15.00;96.10;;;;;;5016578;28;20472;-71
2020/12/22 02:56:24;;;;;;;21.40;2.00;;;15.10;96.10;;;;;;5017121;28;20121;-71
2020/12/22 02:58:51;;;;;;;26.23;2.40;;;15.10;96.10;;;;;;5016446;28;20069;-71
2020/12/22 03:01:18;;;;;;;30.67;2.42;;;15.10;96.10;;;;;;5016966;28;20042;-71
2020/12/22 03:03:44;;;;;;;34.03;2.65;;;15.10;96.20;;;;;;5016550;28;20492;-71
2020/12/22 03:06:10;;;;;;;23.65;2.80;;;15.00;96.10;;;;;;5016844;28;20157;-71
2020/12/22 03:08:36;;;;;;;34.22;3.05;;;15.10;96.10;;;;;;5016727;28;20049;-71
2020/12/22 03:11:03;;;;;;;37.22;3.25;;;15.10;96.10;;;;;;5016688;28;20129;-71
2020/12/22 03:13:29;;;;;;;32.55;3.30;;;15.00;96.10;;;;;;5015719;28;20060;-71
2020/12/22 03:15:55;;;;;;;31.23;3.20;;;15.10;96.20;;;;;;5016119;28;20556;-71
2020/12/22 03:18:20;;;;;;;33.35;2.90;;;15.20;96.20;;;;;;5016006;28;20045;-71
2020/12/22 03:20:47;;;;;;;28.67;2.70;;;15.20;96.10;;;;;;5016060;28;20033;-71
2020/12/22 03:23:13;;;;;;;29.08;2.70;;;15.10;96.10;;;;;;5015979;28;20041;-71
2020/12/22 03:25:39;;;;;;;27.08;3.10;;;15.10;96.20;;;;;;5015898;28;20050;-71
2020/12/22 03:28:04;;;;;;;34.80;3.13;;;15.10;96.20;;;;;;5015656;28;20497;-71
2020/12/22 03:30:30;;;;;;;34.75;2.90;;;15.10;96.20;;;;;;5015762;28;20058;-71
2020/12/22 03:32:56;;;;;;;27.40;3.08;;;15.20;96.20;;;;;;5015878;28;20076;-71
2020/12/22 03:35:22;;;;;;;25.25;2.30;;;15.20;96.20;;;;;;5015703;28;20038;-71
2020/12/22 03:37:48;;;;;;;23.52;2.05;;;15.10;96.10;;;;;;5015268;28;20053;-71
2020/12/22 03:40:14;;;;;;;22.45;1.98;;;15.20;96.10;;;;;;5015593;28;20038;-71
2020/12/22 03:42:40;;;;;;;22.02;1.88;;;15.20;96.20;;;;;;5015737;28;20045;-71
2020/12/22 03:45:07;;;;;;;23.52;2.10;;;15.10;96.20;;;;;;5015643;28;20065;-71
2020/12/22 03:47:34;;;;;;;22.02;1.83;;;15.20;96.30;;;;;;5015796;28;20121;-71
2020/12/22 03:50:00;;;;;;;16.38;1.65;;;15.10;96.30;;;;;;5015481;28;20195;-71
2020/12/22 03:52:26;;;;;;;16.80;1.17;;;15.10;96.20;;;;;;4997810;28;20440;-71
2020/12/22 03:54:52;;;;;;;19.75;1.52;;;15.10;96.40;;;;;;5015570;28;20050;-71
2020/12/22 03:57:18;;;;;;;19.92;1.70;;;15.10;96.40;;;;;;5015144;28;20045;-71
2020/12/22 03:59:44;;;;;;;17.88;1.70;;;15.00;96.40;;;;;;5015092;28;20041;-71
2020/12/22 04:02:10;;;;;;;13.98;1.08;;;15.30;96.40;;;;;;5015182;28;20038;-70
2020/12/22 04:04:36;;;;;;;12.98;1.15;;;15.20;96.40;;;;;;5014934;28;20441;-71
2020/12/22 04:07:02;;;;;;;19.05;1.55;;;15.10;96.40;;;;;;5015297;28;20049;-71
2020/12/22 04:09:28;;;;;;;19.10;1.50;;;15.00;96.50;;;;;;5015287;28;20525;-71
2020/12/22 04:11:54;;;;;;;19.10;1.52;;;15.10;96.50;;;;;;5014729;28;20088;-71
2020/12/22 04:14:21;;;;;;;11.00;1.08;;;15.20;96.50;;;;;;5014732;28;20056;-71
2020/12/22 04:16:47;;;;;;;14.45;1.50;;;15.10;96.50;;;;;;5015092;28;20042;-71
2020/12/22 04:19:14;;;;;;;16.42;1.40;;;15.20;96.50;;;;;;5014673;28;20087;-71
2020/12/22 04:21:40;;;;;;;14.05;1.00;;;15.20;96.70;;;;;;5014785;28;20045;-71
2020/12/22 04:24:06;;;;;;;10.65;1.10;;;15.10;96.50;;;;;;5014359;28;20037;-71
2020/12/22 04:26:33;;;;;;;11.85;0.57;;;15.20;96.50;;;;;;4997310;28;20405;-71
2020/12/22 04:28:59;;;;;;;7.85;0.65;;;15.20;96.40;;;;;;5014322;28;20088;-71
2020/12/22 04:31:25;;;;;;;6.22;0.30;;;15.10;96.60;;;;;;5014792;28;20037;-71
2020/12/22 04:33:53;;;;;;;10.63;0.50;;;15.20;96.50;;;;;;5014843;28;20046;-71
2020/12/22 04:36:20;;;;;;;5.25;0.30;;;15.20;96.50;;;;;;5014645;28;20045;-70
2020/12/22 04:38:47;;;;;;;5.43;0.20;;;15.20;96.50;;;;;;5014519;28;20096;-71
2020/12/22 04:41:15;;;;;;;6.40;0.38;;;15.20;96.50;;;;;;5014374;28;20034;-71
2020/12/22 04:43:42;;;;;;;4.38;0.20;;;15.30;96.50;;;;;;5014080;28;20100;-71
2020/12/22 04:46:09;;;;;;;7.47;0.28;;;15.20;96.50;;;;;;5014423;28;20068;-71
2020/12/22 04:48:40;;;;;;;7.97;0.30;;;15.20;96.50;;;;;;5010633;28;20050;-71
2020/12/22 04:51:10;;;;;;;6.60;0.30;;;15.10;96.50;;;;;;5005204;28;20042;-71
2020/12/22 04:53:39;;;;;;;5.78;0.20;;;15.20;96.60;;;;;;5014212;28;20068;-71
2020/12/22 04:56:07;;;;;;;6.25;0.20;;;15.20;96.50;;;;;;5013537;28;20048;-71
2020/12/22 04:58:34;;;;;;;5.32;0.20;;;15.20;96.60;;;;;;5013714;28;20378;-70
2020/12/22 05:01:00;;;;;;;4.30;0.20;;;15.20;96.60;;;;;;5014445;28;20117;-71
2020/12/22 05:03:26;;;;;;;5.45;0.35;;;15.20;96.60;;;;;;5013488;28;20041;-71
2020/12/22 05:05:53;;;;;;;6.43;0.32;;;15.30;96.60;;;;;;5013756;28;20505;-71
2020/12/22 05:08:20;;;;;;;6.88;0.30;;;15.20;96.50;;;;;;5013972;28;20045;-71
2020/12/22 05:10:47;;;;;;;6.03;0.40;;;15.20;96.60;;;;;;5013246;28;20066;-71
2020/12/22 05:13:15;;;;;;;6.97;0.60;;;15.20;96.70;;;;;;5013424;28;20046;-71
2020/12/22 05:15:46;;;;;;;8.50;0.40;;;15.30;96.70;;;;;;5013982;28;20076;-71
2020/12/22 05:18:13;;;;;;;11.13;0.52;;;15.20;96.60;;;;;;5014187;28;20042;-71
2020/12/22 05:20:46;;;;;;;8.48;0.45;;;15.30;96.70;;;;;;5014174;28;20401;-71
2020/12/22 05:23:15;;;;;;;14.52;0.73;;;15.20;96.70;;;;;;5013939;28;20705;-71
2020/12/22 05:25:42;;;;;;;14.10;1.15;;;15.20;96.80;;;;;;5014223;28;20034;-71
2020/12/22 05:28:08;;;;;;;16.67;1.33;;;15.10;96.80;;;;;;5013619;28;20128;-70
2020/12/22 05:30:37;;;;;;;15.10;1.15;;;15.20;96.80;;;;;;5014357;28;20095;-71
2020/12/22 05:33:04;;;;;;;13.30;0.98;;;15.30;96.80;;;;;;5014079;28;20033;-71
2020/12/22 05:35:37;;;;;;;11.90;1.20;;;15.20;96.80;;;;;;5014116;28;20050;-71
2020/12/22 05:38:04;;;;;;;17.17;1.70;;;15.20;96.80;;;;;;5011363;28;20575;-71
2020/12/22 05:40:30;;;;;;;15.07;1.42;;;15.30;96.90;;;;;;5014282;28;20144;-71
2020/12/22 05:42:58;;;;;;;20.15;1.48;;;15.20;96.80;;;;;;5014134;28;20173;-71
2020/12/22 05:45:24;;;;;;;13.48;1.05;;;15.30;96.90;;;;;;5014232;28;20081;-71
2020/12/22 05:47:53;;;;;;;19.98;1.45;;;15.30;96.90;;;;;;5014049;28;20046;-71
2020/12/22 05:50:21;;;;;;;14.65;1.52;;;15.30;96.90;;;;;;5014240;28;20050;-71
2020/12/22 05:52:52;;;;;;;16.90;1.20;;;15.20;97.00;;;;;;5012340;28;20128;-71
2020/12/22 05:55:25;;;;;;;12.70;1.00;;;15.30;97.10;;;;;;5013977;28;20088;-71
2020/12/22 05:58:12;;;;;;;14.18;1.15;;;15.30;97.10;;;;;;5013668;28;20053;-71
2020/12/22 06:00:42;;;;;;;11.45;0.90;;;15.30;97.10;;;;;;5013825;28;20069;-71
2020/12/22 06:03:11;;;;;;;14.95;1.05;;;15.20;97.00;;;;;;5013890;28;20045;-71
2020/12/22 06:05:41;;;;;;;17.70;1.13;;;15.30;97.00;;;;;;5013322;28;20109;-69
2020/12/22 06:08:08;;;;;;;14.90;1.05;;;15.30;96.90;;;;;;5013187;28;20030;-71
2020/12/22 06:10:36;;;;;;;15.05;1.25;;;15.20;96.90;;;;;;5013704;28;20050;-69
2020/12/22 06:13:04;;;;;;;15.25;1.05;;;15.30;96.90;;;;;;5013234;28;20136;-72
2020/12/22 06:15:31;;;;;;;14.82;1.00;;;15.30;96.90;;;;;;5014103;28;20042;-71
2020/12/22 06:17:57;;;;;;;11.20;0.70;;;15.30;96.90;;;;;;5013522;28;20042;-71
2020/12/22 06:20:25;;;;;;;9.25;0.77;;;15.30;96.90;;;;;;5013379;28;20088;-71
2020/12/22 06:22:58;;;;;;;15.88;0.85;;;15.30;96.90;;;;;;5015706;28;20049;-71
2020/12/22 06:25:24;;;;;;;16.92;0.85;;;15.20;96.90;;;;;;5017320;28;20033;-71
2020/12/22 06:27:50;;;;;;;13.00;0.70;;;15.30;96.90;;;;;;5017253;28;20048;-71
2020/12/22 06:30:17;;;;;;;10.48;0.60;;;15.30;96.90;;;;;;5017400;28;20038;-71
2020/12/22 06:32:43;;;;;;;9.05;0.50;;;15.30;97.00;;;;;;5015681;28;20501;-71
2020/12/22 06:35:30;;;;;;;11.77;0.60;;;15.20;96.90;;;;;;5007459;28;20120;-71
2020/12/22 06:37:57;;;;;;;9.23;0.50;;;15.30;97.00;;;;;;4997544;28;20046;-71
2020/12/22 06:40:57;;;;;;;6.50;0.40;;;15.20;97.00;;;;;;4997277;28;20034;-71
2020/12/22 06:43:42;;;;;;;8.73;0.50;;;15.30;97.10;;;;;;4993328;28;20189;-71
2020/12/22 06:46:10;;;;;;;7.60;0.20;;;15.20;97.00;;;;;;4997550;28;20039;-71
2020/12/22 06:48:46;;;;;;;9.15;0.70;;;15.30;97.00;;;;;;4997275;28;20077;-71
2020/12/22 06:51:32;;;;;;;6.00;0.30;;;15.30;97.00;;;;;;4997521;28;20530;-71
2020/12/22 06:54:02;;;;;;;8.18;0.47;;;15.10;97.00;;;;;;4997010;28;20038;-71
2020/12/22 06:56:47;;;;;;;7.55;0.30;;;15.20;97.10;;;;;;4997268;28;20049;-71
2020/12/22 06:59:42;;;;;;;6.15;0.20;;;15.20;97.10;;;;;;4997556;28;20141;-71
2020/12/22 07:02:37;;;;;;;4.97;0.28;;;15.30;97.20;;;;;;4997094;28;20038;-71
2020/12/22 07:05:06;;;;;;;5.45;0.20;;;15.30;97.10;;;;;;5008163;28;20042;-71
2020/12/22 07:07:59;;;;;;;4.70;0.20;;;15.30;97.10;;;;;;4996771;28;20046;-71
2020/12/22 07:10:28;;;;;;;6.05;0.20;;;15.40;97.20;;;;;;4993661;28;20050;-68
2020/12/22 07:12:59;;;;;;;5.20;0.30;;;15.30;97.10;;;;;;4996614;28;20047;-68
2020/12/22 07:15:32;;;;;;;5.25;0.20;;;15.30;97.10;;;;;;4996235;28;20050;-68
2020/12/22 07:18:29;;;;;;;4.97;0.20;;;15.30;97.10;;;;;;4996449;28;20372;-70
2020/12/22 07:20:56;;;;;;;5.32;0.25;;;15.30;97.10;;;;;;4995565;28;20038;-70
2020/12/22 07:23:22;;;;;;;5.43;0.13;;;15.30;97.10;;;;;;4996654;28;20049;-68
2020/12/22 07:25:48;;;;;;;4.07;0.10;;;15.30;97.10;;;;;;4996510;28;20042;-69
2020/12/22 07:31:01;;;;;;;2.67;0.10;;;15.30;97.20;;;;;;5028479;28;20053;-70
2020/12/22 07:33:26;;;;;;;3.22;0.20;;;15.30;97.20;;;;;;5014181;28;20073;-70
2020/12/22 07:35:52;;;;;;;2.55;0.00;;;15.30;97.10;;;;;;5013828;28;20069;-70
2020/12/22 07:38:18;;;;;;;3.22;0.10;;;15.30;97.20;;;;;;5032141;28;20515;-71
2020/12/22 07:40:44;;;;;;;2.55;0.10;;;15.30;97.20;;;;;;5014282;28;20130;-70
2020/12/22 07:43:12;;;;;;;3.33;0.10;;;15.40;97.30;;;;;;5014111;28;20034;-70
2020/12/22 07:45:50;;;;;;;2.22;0.10;;;15.30;97.30;;;;;;5014617;28;20172;-69
2020/12/22 07:48:16;;;;;;;3.05;0.08;;;15.30;97.30;;;;;;5015890;28;20069;-70
2020/12/22 07:50:42;;;;;;;3.65;0.00;;;15.20;97.20;;;;;;5016128;28;20092;-70
2020/12/22 07:53:08;;;;;;;5.85;0.10;;;15.30;97.20;;;;;;5015784;28;20420;-68
2020/12/22 07:55:39;;;;;;;4.55;0.10;;;15.30;97.20;;;;;;5015648;28;20412;-70
2020/12/22 07:58:06;;;;;;;2.90;0.10;;;15.50;97.20;;;;;;5015451;28;20496;-70
2020/12/22 08:00:32;;;;;;;2.60;0.00;;;15.30;97.10;;;;;;5015523;28;20489;-70
2020/12/22 08:03:11;;;;;;;7.45;0.10;;;15.40;97.20;;;;;;5015251;28;20049;-70
2020/12/22 08:05:37;;;;;;;2.60;0.00;;;15.40;97.20;;;;;;5015037;28;20119;-70
2020/12/22 08:08:04;;;;;;;1.55;0.00;;;15.40;97.10;;;;;;5015037;28;20505;-70
2020/12/22 08:10:29;;;;;;;4.30;0.10;;;15.40;97.20;;;;;;5014756;28;20421;-70
2020/12/22 08:12:58;;;;;;;2.78;0.05;;;15.40;97.20;;;;;;5015192;28;20046;-69
2020/12/22 08:15:24;;;;;;;2.25;0.00;;;15.40;97.10;;;;;;5014309;28;20065;-70
2020/12/22 08:17:54;;;;;;;2.33;0.05;;;15.40;97.20;;;;;;5013818;28;20100;-71
2020/12/22 08:20:20;;;;;;;2.20;0.00;;;15.50;97.30;;;;;;5015127;28;20041;-70
2020/12/22 08:22:46;;;;;;;2.67;0.10;;;15.50;97.20;;;;;;5015037;28;20484;-70
2020/12/22 08:25:12;;;;;;;2.47;0.00;;;15.60;97.30;;;;;;5014475;28;20049;-71
2020/12/22 08:27:38;;;;;;;1.42;0.00;;;15.40;97.20;;;;;;5014373;28;20045;-70
2020/12/22 08:30:18;;;;;;;0.73;0.10;;;15.50;97.20;;;;;;5012066;28;20053;-72
2020/12/22 08:32:45;;;;;;;2.30;0.00;;;15.50;97.20;;;;;;5014371;28;20436;-71
2020/12/22 08:35:12;;;;;;;0.98;0.00;;;15.60;97.20;;;;;;5014749;28;20093;-70
2020/12/22 08:37:38;;;;;;;0.50;0.00;;;15.60;97.20;;;;;;5014395;28;20127;-71
2020/12/22 08:40:04;;;;;;;1.30;0.10;;;15.60;97.20;;;;;;5014493;28;20057;-70
2020/12/22 08:42:30;;;;;;;0.40;0.00;;;15.60;97.20;;;;;;5014502;28;20068;-70
2020/12/22 08:44:56;;;;;;;0.60;0.00;;;15.70;97.20;;;;;;5013994;28;20071;-70
2020/12/22 08:47:22;;;;;;;0.73;0.00;;;15.70;97.20;;;;;;5013338;28;20497;-71
2020/12/22 08:49:48;;;;;;;0.43;0.00;;;15.80;97.20;;;;;;5013889;28;20049;-70
2020/12/22 08:52:20;;;;;;;0.43;0.00;;;15.70;97.20;;;;;;5014327;28;20107;-71
2020/12/22 08:54:47;;;;;;;0.60;0.00;;;15.70;97.10;;;;;;5013696;28;20526;-70
2020/12/22 08:57:20;;;;;;;0.57;0.00;;;15.70;97.10;;;;;;5013438;28;20033;-71
2020/12/22 08:59:46;;;;;;;0.65;0.00;;;15.80;97.20;;;;;;5014306;28;20077;-70
2020/12/22 09:02:26;;;;;;;1.05;0.00;;;15.80;97.20;;;;;;5014045;28;20061;-72
2020/12/22 09:04:52;;;;;;;0.30;0.00;;;15.70;97.20;;;;;;5014016;28;20566;-71
2020/12/22 09:07:17;;;;;;;0.68;0.00;;;15.80;97.20;;;;;;5014315;28;20108;-73
2020/12/22 09:09:43;;;;;;;1.77;0.00;;;15.80;97.20;;;;;;5013857;28;20096;-70
2020/12/22 09:12:12;;;;;;;0.98;0.30;;;15.90;97.10;;;;;;5013787;28;20037;-71
2020/12/22 09:14:42;;;;;;;1.83;0.10;;;15.80;97.10;;;;;;5014084;28;20034;-70
2020/12/22 09:17:09;;;;;;;1.90;0.10;;;15.80;97.00;;;;;;5013053;28;20041;-70
2020/12/22 09:19:49;;;;;;;3.83;0.10;;;15.90;97.10;;;;;;5013504;28;20054;-70
2020/12/22 09:22:21;;;;;;;4.15;0.20;;;15.90;97.20;;;;;;5013344;28;20033;-72
2020/12/22 09:24:54;;;;;;;9.07;1.17;;;16.00;97.10;;;;;;5013771;28;20121;-71
2020/12/22 09:27:39;;;;;;;10.88;1.05;;;15.90;97.00;;;;;;5024446;28;20560;-70
2020/12/22 09:30:13;;;;;;;12.65;1.00;;;15.90;97.10;;;;;;5033252;28;20140;-72
2020/12/22 09:32:40;;;;;;;13.60;1.50;;;16.00;97.10;;;;;;5033213;28;20040;-73
2020/12/22 09:35:07;;;;;;;15.88;1.95;;;15.90;97.00;;;;;;5033245;28;20052;-72
2020/12/22 09:37:33;;;;;;;20.80;2.17;;;16.00;97.20;;;;;;5033530;28;20033;-72
2020/12/22 09:39:59;;;;;;;22.08;2.65;;;15.90;97.10;;;;;;5033265;28;20049;-73
2020/12/22 09:42:27;;;;;;;20.60;2.25;;;15.90;97.00;;;;;;5033112;28;20073;-73
2020/12/22 09:44:53;;;;;;;19.23;2.08;;;15.90;97.10;;;;;;5033260;28;20041;-72
2020/12/22 09:47:19;;;;;;;21.85;2.10;;;16.00;97.10;;;;;;5033103;28;20044;-73
2020/12/22 09:49:45;;;;;;;26.95;2.75;;;16.10;97.20;;;;;;5033384;28;20107;-74
2020/12/22 09:52:11;;;;;;;24.92;2.60;;;16.10;97.10;;;;;;5014258;28;20053;-74
2020/12/22 09:54:37;;;;;;;25.75;2.33;;;16.20;97.10;;;;;;5011958;28;20049;-73
2020/12/22 09:57:04;;;;;;;19.08;2.55;;;16.10;97.00;;;;;;5013097;28;20069;-73
2020/12/22 09:59:30;;;;;;;22.48;2.55;;;16.10;97.00;;;;;;5017051;28;20527;-73
2020/12/22 10:01:58;;;;;;;24.00;2.25;;;16.10;97.00;;;;;;5017715;28;20038;-74
2020/12/22 10:04:24;;;;;;;21.40;2.45;;;16.10;96.90;;;;;;5017483;28;20065;-73
2020/12/22 10:06:50;;;;;;;24.58;2.67;;;16.10;96.90;;;;;;5017427;28;20092;-73
2020/12/22 10:09:17;;;;;;;19.73;1.92;;;16.10;96.80;;;;;;5016821;28;20072;-74
2020/12/22 10:11:44;;;;;;;20.50;2.25;;;16.20;96.80;;;;;;5017045;28;20080;-73
2020/12/22 10:14:10;;;;;;;17.88;2.67;;;16.20;96.70;;;;;;5016927;28;20049;-72
2020/12/22 10:16:36;;;;;;;21.73;2.45;;;16.20;96.60;;;;;;5017336;28;20045;-73
2020/12/22 10:19:03;;;;;;;17.15;1.83;;;16.20;96.60;;;;;;5015964;28;20053;-74
2020/12/22 10:21:29;;;;;;;20.40;1.88;;;16.30;96.60;;;;;;5016901;28;20037;-73
2020/12/22 10:24:04;;;;;;;18.25;1.83;;;16.30;96.60;;;;;;5016854;28;20053;-73
2020/12/22 10:26:31;;;;;;;18.95;1.60;;;16.30;96.60;;;;;;5016476;28;20042;-73
2020/12/22 10:28:56;;;;;;;12.13;1.73;;;16.20;96.50;;;;;;5016437;28;20576;-73
2020/12/22 10:31:25;;;;;;;16.33;2.55;;;16.20;96.40;;;;;;5016968;28;20125;-74
2020/12/22 10:33:51;;;;;;;21.42;3.17;;;16.40;96.40;;;;;;5016033;28;20500;-74
2020/12/22 10:36:19;;;;;;;16.25;2.90;;;16.30;96.40;;;;;;5016632;28;20069;-73
2020/12/22 10:38:44;;;;;;;17.75;2.53;;;16.30;96.50;;;;;;5015804;28;20061;-73
2020/12/22 10:41:10;;;;;;;12.98;1.63;;;16.40;96.40;;;;;;5016626;28;20034;-74
2020/12/22 10:43:37;;;;;;;11.73;1.42;;;16.40;96.40;;;;;;5016777;28;20061;-73
2020/12/22 10:46:04;;;;;;;11.45;1.10;;;16.40;96.40;;;;;;5016765;28;20037;-74
2020/12/22 10:48:30;;;;;;;11.77;1.40;;;16.50;96.30;;;;;;5017019;28;20034;-74
2020/12/22 10:50:56;;;;;;;8.45;1.17;;;16.50;96.20;;;;;;5016563;28;20073;-72
2020/12/22 10:53:22;;;;;;;15.30;1.65;;;16.50;96.10;;;;;;5016577;28;20068;-72
2020/12/22 10:55:48;;;;;;;12.43;1.40;;;16.50;96.10;;;;;;5016627;28;20034;-72
2020/12/22 10:58:14;;;;;;;17.10;1.90;;;16.50;95.90;;;;;;5016272;28;20064;-72
2020/12/22 11:00:40;;;;;;;11.80;1.52;;;16.50;96.00;;;;;;5015940;28;20444;-73
2020/12/22 11:03:12;;;;;;;16.70;1.42;;;16.50;95.90;;;;;;5016087;28;20106;-73
2020/12/22 11:08:22;;;;;;;14.33;1.30;;;16.50;95.90;;;;;;5014070;28;20520;-72
2020/12/22 11:10:49;;;;;;;14.88;1.63;;;16.40;95.80;;;;;;5014240;28;20049;-72
2020/12/22 11:13:17;;;;;;;9.68;1.13;;;16.50;95.90;;;;;;5016443;28;20041;-72
2020/12/22 11:15:44;;;;;;;7.63;0.70;;;16.60;95.90;;;;;;5016476;28;20038;-72
2020/12/22 11:18:10;;;;;;;8.18;1.25;;;16.70;95.70;;;;;;5016368;28;20038;-73
2020/12/22 11:20:37;;;;;;;5.45;1.20;;;16.60;95.60;;;;;;5016285;28;20096;-72
2020/12/22 11:23:03;;;;;;;7.05;0.75;;;16.50;95.70;;;;;;5016019;28;20420;-72
2020/12/22 11:25:29;;;;;;;5.53;0.40;;;16.50;95.70;;;;;;5015711;28;20038;-71
2020/12/22 11:27:55;;;;;;;6.05;0.40;;;16.50;95.60;;;;;;5015269;28;20104;-73
2020/12/22 11:30:21;;;;;;;6.30;0.30;;;16.50;95.60;;;;;;5015954;28;20060;-72
2020/12/22 11:32:46;;;;;;;5.72;0.28;;;16.40;95.60;;;;;;5015946;28;20034;-72
2020/12/22 11:35:12;;;;;;;4.78;0.30;;;16.50;95.60;;;;;;5015013;28;20046;-73
2020/12/22 11:37:38;;;;;;;4.88;0.20;;;16.50;95.70;;;;;;5016080;28;20036;-72
2020/12/22 11:40:07;;;;;;;4.95;0.50;;;16.50;95.80;;;;;;5015786;28;20042;-71
2020/12/22 11:42:35;;;;;;;3.55;0.20;;;16.50;95.80;;;;;;5015810;28;20038;-71
2020/12/22 11:45:01;;;;;;;4.60;0.13;;;16.60;95.90;;;;;;5015772;28;20045;-73
2020/12/22 11:47:27;;;;;;;4.72;0.25;;;16.70;96.20;;;;;;5015717;28;20037;-73
2020/12/22 11:49:53;;;;;;;3.55;0.30;;;16.70;95.70;;;;;;5015813;28;20049;-73
2020/12/22 11:52:20;;;;;;;3.63;0.20;;;16.80;95.80;;;;;;5015367;28;20100;-72
2020/12/22 11:54:46;;;;;;;3.58;0.10;;;16.80;95.80;;;;;;5015211;28;20524;-72
2020/12/22 11:57:12;;;;;;;2.03;0.10;;;16.80;95.70;;;;;;5015259;28;20065;-73
2020/12/22 11:59:37;;;;;;;1.23;0.10;;;16.70;95.60;;;;;;5015126;28;20140;-72
2020/12/22 12:02:04;;;;;;;2.53;0.17;;;16.70;95.60;;;;;;5015260;28;20037;-73
2020/12/22 12:04:31;;;;;;;1.38;0.10;;;16.70;95.70;;;;;;5015428;28;20515;-73
2020/12/22 12:06:56;;;;;;;2.67;0.08;;;16.80;95.60;;;;;;5014312;28;20038;-74
2020/12/22 12:09:22;;;;;;;1.98;0.10;;;16.80;95.60;;;;;;5015374;28;20065;-73
2020/12/22 12:11:49;;;;;;;1.02;0.00;;;16.80;95.70;;;;;;5015277;28;20168;-71
2020/12/22 12:14:17;;;;;;;0.77;0.00;;;16.90;95.60;;;;;;5015599;28;20046;-72
2020/12/22 12:16:49;;;;;;;1.00;0.00;;;16.80;95.50;;;;;;5015224;28;20057;-73
2020/12/22 12:19:15;;;;;;;1.20;0.00;;;16.80;95.60;;;;;;5015111;28;20049;-72
2020/12/22 12:21:41;;;;;;;0.65;0.00;;;16.80;95.60;;;;;;5014424;28;20069;-70
2020/12/22 12:24:07;;;;;;;1.05;0.00;;;16.80;95.50;;;;;;5015200;28;20511;-71
2020/12/22 12:26:34;;;;;;;1.08;0.00;;;16.80;95.60;;;;;;5015379;28;20069;-73
2020/12/22 12:29:00;;;;;;;1.75;0.10;;;16.70;95.60;;;;;;5014617;28;20046;-71
2020/12/22 12:31:28;;;;;;;2.85;0.10;;;16.70;95.60;;;;;;5015148;28;20117;-71
2020/12/22 12:33:54;;;;;;;2.58;0.10;;;16.60;95.60;;;;;;5014846;28;20497;-71
2020/12/22 12:36:20;;;;;;;3.42;0.10;;;16.70;95.60;;;;;;5014869;28;20048;-71
2020/12/22 12:38:45;;;;;;;4.55;0.13;;;16.50;95.60;;;;;;5014643;28;20583;-70
2020/12/22 12:41:12;;;;;;;2.78;0.20;;;16.50;95.70;;;;;;5014666;28;20092;-70
2020/12/22 12:43:38;;;;;;;7.47;0.28;;;16.50;95.70;;;;;;5014663;28;20044;-70
2020/12/22 12:46:06;;;;;;;2.47;0.10;;;16.60;95.70;;;;;;5014861;28;20485;-69
2020/12/22 12:48:33;;;;;;;5.15;0.30;;;16.50;95.60;;;;;;5014662;28;20045;-70